sensor_id;sensor_type;location;lat;lon;timestamp;P1;durP1;ratioP1;P2;durP2;ratioP2
15643;SDS011;7921;43.586;1.408;2023-08-30T00:01:29;2.72;;;2.42;;
15643;SDS011;7921;43.586;1.408;2023-08-30T00:03:54;2.75;;;2.15;;
15643;SDS011;7921;43.586;1.408;2023-08-30T00:06:20;4.53;;;2.30;;
15643;SDS011;7921;43.586;1.408;2023-08-30T00:08:45;2.78;;;2.10;;
15643;SDS011;7921;43.586;1.408;2023-08-30T00:11:11;2.35;;;2.15;;
15643;SDS011;7921;43.586;1.408;2023-08-30T00:13:36;2.90;;;2.40;;
15643;SDS011;7921;43.586;1.408;2023-08-30T00:16:01;2.88;;;1.92;;
15643;SDS011;7921;43.586;1.408;2023-08-30T00:18:27;3.67;;;2.42;;
15643;SDS011;7921;43.586;1.408;2023-08-30T00:20:54;3.42;;;2.47;;
15643;SDS011;7921;43.586;1.408;2023-08-30T00:23:20;2.83;;;2.30;;
15643;SDS011;7921;43.586;1.408;2023-08-30T00:25:45;3.97;;;2.35;;
15643;SDS011;7921;43.586;1.408;2023-08-30T00:28:11;2.30;;;2.00;;
15643;SDS011;7921;43.586;1.408;2023-08-30T00:30:36;2.67;;;2.20;;
15643;SDS011;7921;43.586;1.408;2023-08-30T00:33:01;3.40;;;2.42;;
15643;SDS011;7921;43.586;1.408;2023-08-30T00:35:27;2.92;;;2.25;;
15643;SDS011;7921;43.586;1.408;2023-08-30T00:37:52;2.42;;;2.22;;
15643;SDS011;7921;43.586;1.408;2023-08-30T00:40:18;2.42;;;2.05;;
15643;SDS011;7921;43.586;1.408;2023-08-30T00:42:43;2.40;;;2.20;;
15643;SDS011;7921;43.586;1.408;2023-08-30T00:45:08;2.42;;;2.22;;
15643;SDS011;7921;43.586;1.408;2023-08-30T00:47:34;2.17;;;1.98;;
15643;SDS011;7921;43.586;1.408;2023-08-30T00:50:01;3.45;;;2.42;;
15643;SDS011;7921;43.586;1.408;2023-08-30T00:52:26;2.47;;;2.28;;
15643;SDS011;7921;43.586;1.408;2023-08-30T00:54:51;2.45;;;2.15;;
15643;SDS011;7921;43.586;1.408;2023-08-30T00:57:17;2.78;;;2.40;;
15643;SDS011;7921;43.586;1.408;2023-08-30T00:59:42;2.67;;;2.47;;
15643;SDS011;7921;43.586;1.408;2023-08-30T01:02:08;2.85;;;1.95;;
15643;SDS011;7921;43.586;1.408;2023-08-30T01:04:33;2.45;;;2.25;;
15643;SDS011;7921;43.586;1.408;2023-08-30T01:06:59;2.55;;;2.30;;
15643;SDS011;7921;43.586;1.408;2023-08-30T01:09:24;2.45;;;2.03;;
15643;SDS011;7921;43.586;1.408;2023-08-30T01:14:43;2.53;;;2.33;;
15643;SDS011;7921;43.586;1.408;2023-08-30T01:17:13;2.13;;;1.92;;
15643;SDS011;7921;43.586;1.408;2023-08-30T01:20:13;4.47;;;2.35;;
15643;SDS011;7921;43.586;1.408;2023-08-30T01:28:14;3.17;;;2.53;;
15643;SDS011;7921;43.586;1.408;2023-08-30T01:30:42;3.25;;;2.13;;
15643;SDS011;7921;43.586;1.408;2023-08-30T01:33:08;2.72;;;2.22;;
15643;SDS011;7921;43.586;1.408;2023-08-30T01:35:34;2.63;;;2.20;;
15643;SDS011;7921;43.586;1.408;2023-08-30T01:38:02;3.58;;;2.10;;
15643;SDS011;7921;43.586;1.408;2023-08-30T01:40:28;3.25;;;2.15;;
15643;SDS011;7921;43.586;1.408;2023-08-30T01:42:58;3.05;;;2.85;;
15643;SDS011;7921;43.586;1.408;2023-08-30T01:45:24;2.83;;;2.03;;
15643;SDS011;7921;43.586;1.408;2023-08-30T01:47:50;2.85;;;2.40;;
15643;SDS011;7921;43.586;1.408;2023-08-30T01:50:17;2.42;;;2.10;;
15643;SDS011;7921;43.586;1.408;2023-08-30T01:52:44;2.50;;;2.08;;
15643;SDS011;7921;43.586;1.408;2023-08-30T01:55:11;2.78;;;2.15;;
15643;SDS011;7921;43.586;1.408;2023-08-30T01:57:38;3.20;;;2.38;;
15643;SDS011;7921;43.586;1.408;2023-08-30T02:00:04;2.55;;;2.10;;
15643;SDS011;7921;43.586;1.408;2023-08-30T02:02:30;2.63;;;2.05;;
15643;SDS011;7921;43.586;1.408;2023-08-30T02:04:56;2.72;;;2.40;;
15643;SDS011;7921;43.586;1.408;2023-08-30T02:07:42;4.18;;;2.83;;
15643;SDS011;7921;43.586;1.408;2023-08-30T02:10:21;2.22;;;2.03;;
15643;SDS011;7921;43.586;1.408;2023-08-30T02:12:49;2.55;;;2.35;;
15643;SDS011;7921;43.586;1.408;2023-08-30T02:15:16;2.78;;;2.53;;
15643;SDS011;7921;43.586;1.408;2023-08-30T02:17:42;2.25;;;2.05;;
15643;SDS011;7921;43.586;1.408;2023-08-30T02:20:08;2.50;;;2.30;;
15643;SDS011;7921;43.586;1.408;2023-08-30T02:22:34;2.92;;;2.08;;
15643;SDS011;7921;43.586;1.408;2023-08-30T02:25:00;4.40;;;2.53;;
15643;SDS011;7921;43.586;1.408;2023-08-30T02:27:29;2.50;;;2.13;;
15643;SDS011;7921;43.586;1.408;2023-08-30T02:29:58;3.38;;;2.28;;
15643;SDS011;7921;43.586;1.408;2023-08-30T02:32:23;2.92;;;2.00;;
15643;SDS011;7921;43.586;1.408;2023-08-30T02:34:49;3.35;;;2.40;;
15643;SDS011;7921;43.586;1.408;2023-08-30T02:37:15;2.42;;;2.22;;
15643;SDS011;7921;43.586;1.408;2023-08-30T02:39:41;3.38;;;2.42;;
15643;SDS011;7921;43.586;1.408;2023-08-30T02:42:06;3.05;;;2.70;;
15643;SDS011;7921;43.586;1.408;2023-08-30T02:44:32;2.83;;;2.25;;
15643;SDS011;7921;43.586;1.408;2023-08-30T02:46:57;4.13;;;2.50;;
15643;SDS011;7921;43.586;1.408;2023-08-30T02:49:22;2.72;;;2.20;;
15643;SDS011;7921;43.586;1.408;2023-08-30T02:51:48;2.97;;;2.30;;
15643;SDS011;7921;43.586;1.408;2023-08-30T02:54:13;3.35;;;2.80;;
15643;SDS011;7921;43.586;1.408;2023-08-30T02:56:39;2.55;;;2.33;;
15643;SDS011;7921;43.586;1.408;2023-08-30T02:59:06;2.50;;;2.25;;
15643;SDS011;7921;43.586;1.408;2023-08-30T03:01:31;2.70;;;2.40;;
15643;SDS011;7921;43.586;1.408;2023-08-30T03:03:56;2.40;;;2.05;;
15643;SDS011;7921;43.586;1.408;2023-08-30T03:06:22;3.05;;;2.40;;
15643;SDS011;7921;43.586;1.408;2023-08-30T03:08:47;4.63;;;2.78;;
15643;SDS011;7921;43.586;1.408;2023-08-30T03:11:13;3.00;;;2.50;;
15643;SDS011;7921;43.586;1.408;2023-08-30T03:13:39;2.88;;;2.40;;
15643;SDS011;7921;43.586;1.408;2023-08-30T03:16:14;3.95;;;2.70;;
15643;SDS011;7921;43.586;1.408;2023-08-30T03:18:40;2.65;;;2.28;;
15643;SDS011;7921;43.586;1.408;2023-08-30T03:21:06;2.75;;;2.03;;
15643;SDS011;7921;43.586;1.408;2023-08-30T03:23:32;4.07;;;2.75;;
15643;SDS011;7921;43.586;1.408;2023-08-30T03:25:58;2.83;;;2.50;;
15643;SDS011;7921;43.586;1.408;2023-08-30T03:28:24;2.40;;;2.20;;
15643;SDS011;7921;43.586;1.408;2023-08-30T03:30:49;2.33;;;2.13;;
15643;SDS011;7921;43.586;1.408;2023-08-30T03:33:15;4.25;;;2.70;;
15643;SDS011;7921;43.586;1.408;2023-08-30T03:35:40;4.35;;;2.60;;
15643;SDS011;7921;43.586;1.408;2023-08-30T03:38:06;3.47;;;2.20;;
15643;SDS011;7921;43.586;1.408;2023-08-30T03:40:31;2.85;;;2.55;;
15643;SDS011;7921;43.586;1.408;2023-08-30T03:42:57;2.60;;;2.40;;
15643;SDS011;7921;43.586;1.408;2023-08-30T03:45:22;2.72;;;2.42;;
15643;SDS011;7921;43.586;1.408;2023-08-30T03:47:48;3.25;;;2.38;;
15643;SDS011;7921;43.586;1.408;2023-08-30T03:50:13;3.42;;;2.50;;
15643;SDS011;7921;43.586;1.408;2023-08-30T03:52:38;2.65;;;2.45;;
15643;SDS011;7921;43.586;1.408;2023-08-30T03:55:04;3.88;;;2.17;;
15643;SDS011;7921;43.586;1.408;2023-08-30T03:57:30;2.50;;;2.10;;
15643;SDS011;7921;43.586;1.408;2023-08-30T03:59:55;3.08;;;2.47;;
15643;SDS011;7921;43.586;1.408;2023-08-30T04:02:20;2.45;;;2.25;;
15643;SDS011;7921;43.586;1.408;2023-08-30T04:04:46;2.80;;;2.60;;
15643;SDS011;7921;43.586;1.408;2023-08-30T04:07:13;2.28;;;2.08;;
15643;SDS011;7921;43.586;1.408;2023-08-30T04:09:38;3.40;;;2.70;;
15643;SDS011;7921;43.586;1.408;2023-08-30T04:12:04;3.35;;;2.40;;
15643;SDS011;7921;43.586;1.408;2023-08-30T04:14:30;2.88;;;2.47;;
15643;SDS011;7921;43.586;1.408;2023-08-30T04:16:55;3.85;;;2.75;;
15643;SDS011;7921;43.586;1.408;2023-08-30T04:19:20;2.47;;;2.22;;
15643;SDS011;7921;43.586;1.408;2023-08-30T04:21:46;2.80;;;2.28;;
15643;SDS011;7921;43.586;1.408;2023-08-30T04:24:11;3.45;;;2.55;;
15643;SDS011;7921;43.586;1.408;2023-08-30T04:26:37;2.42;;;2.22;;
15643;SDS011;7921;43.586;1.408;2023-08-30T04:29:02;2.58;;;2.38;;
15643;SDS011;7921;43.586;1.408;2023-08-30T04:31:28;2.67;;;2.47;;
15643;SDS011;7921;43.586;1.408;2023-08-30T04:33:54;3.10;;;2.40;;
15643;SDS011;7921;43.586;1.408;2023-08-30T04:36:20;3.28;;;2.47;;
15643;SDS011;7921;43.586;1.408;2023-08-30T04:38:46;3.22;;;2.55;;
15643;SDS011;7921;43.586;1.408;2023-08-30T04:41:11;2.83;;;2.38;;
15643;SDS011;7921;43.586;1.408;2023-08-30T04:43:37;2.97;;;2.67;;
15643;SDS011;7921;43.586;1.408;2023-08-30T04:46:02;2.75;;;2.47;;
15643;SDS011;7921;43.586;1.408;2023-08-30T04:48:28;2.45;;;2.25;;
15643;SDS011;7921;43.586;1.408;2023-08-30T04:51:04;2.80;;;2.60;;
15643;SDS011;7921;43.586;1.408;2023-08-30T04:53:30;3.35;;;2.60;;
15643;SDS011;7921;43.586;1.408;2023-08-30T04:55:56;3.50;;;2.50;;
15643;SDS011;7921;43.586;1.408;2023-08-30T04:58:21;3.60;;;2.53;;
15643;SDS011;7921;43.586;1.408;2023-08-30T05:00:46;2.92;;;2.67;;
15643;SDS011;7921;43.586;1.408;2023-08-30T05:03:12;4.93;;;2.50;;
15643;SDS011;7921;43.586;1.408;2023-08-30T05:05:37;2.90;;;2.60;;
15643;SDS011;7921;43.586;1.408;2023-08-30T05:08:03;4.45;;;2.60;;
15643;SDS011;7921;43.586;1.408;2023-08-30T05:10:29;2.97;;;2.65;;
15643;SDS011;7921;43.586;1.408;2023-08-30T05:12:54;2.67;;;2.42;;
15643;SDS011;7921;43.586;1.408;2023-08-30T05:15:20;3.13;;;2.67;;
15643;SDS011;7921;43.586;1.408;2023-08-30T05:17:45;2.60;;;2.40;;
15643;SDS011;7921;43.586;1.408;2023-08-30T05:20:11;3.38;;;2.75;;
15643;SDS011;7921;43.586;1.408;2023-08-30T05:22:36;2.88;;;2.67;;
15643;SDS011;7921;43.586;1.408;2023-08-30T05:25:02;3.75;;;2.92;;
15643;SDS011;7921;43.586;1.408;2023-08-30T05:27:27;2.88;;;2.58;;
15643;SDS011;7921;43.586;1.408;2023-08-30T05:29:53;2.58;;;2.38;;
15643;SDS011;7921;43.586;1.408;2023-08-30T05:32:20;2.80;;;2.50;;
15643;SDS011;7921;43.586;1.408;2023-08-30T05:34:46;3.20;;;2.83;;
15643;SDS011;7921;43.586;1.408;2023-08-30T05:37:11;3.33;;;2.70;;
15643;SDS011;7921;43.586;1.408;2023-08-30T05:39:37;3.22;;;2.60;;
15643;SDS011;7921;43.586;1.408;2023-08-30T05:42:02;4.20;;;2.67;;
15643;SDS011;7921;43.586;1.408;2023-08-30T05:44:28;4.25;;;3.20;;
15643;SDS011;7921;43.586;1.408;2023-08-30T05:46:54;2.78;;;2.47;;
15643;SDS011;7921;43.586;1.408;2023-08-30T05:49:19;2.95;;;2.63;;
15643;SDS011;7921;43.586;1.408;2023-08-30T05:51:44;2.65;;;2.45;;
15643;SDS011;7921;43.586;1.408;2023-08-30T05:54:10;3.00;;;2.55;;
15643;SDS011;7921;43.586;1.408;2023-08-30T05:56:36;4.78;;;2.78;;
15643;SDS011;7921;43.586;1.408;2023-08-30T05:59:02;3.63;;;2.85;;
15643;SDS011;7921;43.586;1.408;2023-08-30T06:01:27;3.75;;;2.90;;
15643;SDS011;7921;43.586;1.408;2023-08-30T06:03:52;3.83;;;3.33;;
15643;SDS011;7921;43.586;1.408;2023-08-30T06:06:18;4.32;;;2.95;;
15643;SDS011;7921;43.586;1.408;2023-08-30T06:08:43;2.78;;;2.45;;
15643;SDS011;7921;43.586;1.408;2023-08-30T06:11:09;2.72;;;2.45;;
15643;SDS011;7921;43.586;1.408;2023-08-30T06:13:34;2.75;;;2.42;;
15643;SDS011;7921;43.586;1.408;2023-08-30T06:15:59;3.80;;;2.80;;
15643;SDS011;7921;43.586;1.408;2023-08-30T06:18:26;2.63;;;2.42;;
15643;SDS011;7921;43.586;1.408;2023-08-30T06:20:54;2.88;;;2.67;;
15643;SDS011;7921;43.586;1.408;2023-08-30T06:23:19;3.10;;;2.83;;
15643;SDS011;7921;43.586;1.408;2023-08-30T06:25:45;2.78;;;2.53;;
15643;SDS011;7921;43.586;1.408;2023-08-30T06:28:17;3.33;;;2.33;;
15643;SDS011;7921;43.586;1.408;2023-08-30T06:30:43;4.20;;;2.75;;
15643;SDS011;7921;43.586;1.408;2023-08-30T06:33:08;3.42;;;2.58;;
15643;SDS011;7921;43.586;1.408;2023-08-30T06:35:36;2.45;;;2.25;;
15643;SDS011;7921;43.586;1.408;2023-08-30T06:38:01;3.78;;;2.60;;
15643;SDS011;7921;43.586;1.408;2023-08-30T06:40:28;2.67;;;2.40;;
15643;SDS011;7921;43.586;1.408;2023-08-30T06:42:53;2.70;;;2.50;;
15643;SDS011;7921;43.586;1.408;2023-08-30T06:45:18;2.40;;;2.20;;
15643;SDS011;7921;43.586;1.408;2023-08-30T06:47:44;2.75;;;2.40;;
15643;SDS011;7921;43.586;1.408;2023-08-30T06:50:10;5.00;;;4.50;;
15643;SDS011;7921;43.586;1.408;2023-08-30T06:52:35;3.47;;;2.83;;
15643;SDS011;7921;43.586;1.408;2023-08-30T06:55:01;3.33;;;2.90;;
15643;SDS011;7921;43.586;1.408;2023-08-30T06:57:27;3.45;;;2.67;;
15643;SDS011;7921;43.586;1.408;2023-08-30T06:59:52;3.13;;;2.55;;
15643;SDS011;7921;43.586;1.408;2023-08-30T07:02:18;3.78;;;2.08;;
15643;SDS011;7921;43.586;1.408;2023-08-30T07:04:43;2.85;;;2.65;;
15643;SDS011;7921;43.586;1.408;2023-08-30T07:07:08;3.10;;;2.45;;
15643;SDS011;7921;43.586;1.408;2023-08-30T07:09:34;2.92;;;2.30;;
15643;SDS011;7921;43.586;1.408;2023-08-30T07:11:59;2.92;;;2.55;;
15643;SDS011;7921;43.586;1.408;2023-08-30T07:14:25;2.50;;;2.30;;
15643;SDS011;7921;43.586;1.408;2023-08-30T07:16:51;2.50;;;2.30;;
15643;SDS011;7921;43.586;1.408;2023-08-30T07:19:16;3.30;;;2.55;;
15643;SDS011;7921;43.586;1.408;2023-08-30T07:21:42;3.00;;;2.40;;
15643;SDS011;7921;43.586;1.408;2023-08-30T07:24:07;3.10;;;2.38;;
15643;SDS011;7921;43.586;1.408;2023-08-30T07:26:33;3.35;;;2.55;;
15643;SDS011;7921;43.586;1.408;2023-08-30T07:28:59;2.33;;;2.08;;
15643;SDS011;7921;43.586;1.408;2023-08-30T07:31:24;2.33;;;2.00;;
15643;SDS011;7921;43.586;1.408;2023-08-30T07:33:49;2.25;;;2.05;;
15643;SDS011;7921;43.586;1.408;2023-08-30T07:36:15;3.00;;;2.38;;
15643;SDS011;7921;43.586;1.408;2023-08-30T07:38:40;3.42;;;2.65;;
15643;SDS011;7921;43.586;1.408;2023-08-30T07:41:05;2.42;;;2.15;;
15643;SDS011;7921;43.586;1.408;2023-08-30T07:43:31;2.05;;;1.90;;
15643;SDS011;7921;43.586;1.408;2023-08-30T07:45:57;2.65;;;2.30;;
15643;SDS011;7921;43.586;1.408;2023-08-30T07:48:23;2.63;;;2.30;;
15643;SDS011;7921;43.586;1.408;2023-08-30T07:50:49;2.40;;;2.20;;
15643;SDS011;7921;43.586;1.408;2023-08-30T07:53:14;3.70;;;2.33;;
15643;SDS011;7921;43.586;1.408;2023-08-30T07:55:40;1.75;;;1.60;;
15643;SDS011;7921;43.586;1.408;2023-08-30T07:58:05;2.20;;;2.00;;
15643;SDS011;7921;43.586;1.408;2023-08-30T08:00:30;3.40;;;2.10;;
15643;SDS011;7921;43.586;1.408;2023-08-30T08:02:56;2.30;;;2.10;;
15643;SDS011;7921;43.586;1.408;2023-08-30T08:05:21;2.65;;;1.80;;
15643;SDS011;7921;43.586;1.408;2023-08-30T08:07:51;2.97;;;2.15;;
15643;SDS011;7921;43.586;1.408;2023-08-30T08:10:17;2.72;;;2.10;;
15643;SDS011;7921;43.586;1.408;2023-08-30T08:12:43;2.28;;;2.08;;
15643;SDS011;7921;43.586;1.408;2023-08-30T08:15:08;2.85;;;2.20;;
15643;SDS011;7921;43.586;1.408;2023-08-30T08:17:34;2.60;;;1.98;;
15643;SDS011;7921;43.586;1.408;2023-08-30T08:19:59;3.03;;;2.00;;
15643;SDS011;7921;43.586;1.408;2023-08-30T08:22:25;2.33;;;2.13;;
15643;SDS011;7921;43.586;1.408;2023-08-30T08:24:50;2.30;;;2.10;;
15643;SDS011;7921;43.586;1.408;2023-08-30T08:27:16;2.47;;;2.00;;
15643;SDS011;7921;43.586;1.408;2023-08-30T08:29:42;2.40;;;2.00;;
15643;SDS011;7921;43.586;1.408;2023-08-30T08:32:07;2.15;;;1.92;;
15643;SDS011;7921;43.586;1.408;2023-08-30T08:34:33;2.08;;;1.88;;
15643;SDS011;7921;43.586;1.408;2023-08-30T08:36:59;2.03;;;1.85;;
15643;SDS011;7921;43.586;1.408;2023-08-30T08:39:24;2.08;;;1.70;;
15643;SDS011;7921;43.586;1.408;2023-08-30T08:41:50;3.05;;;2.00;;
15643;SDS011;7921;43.586;1.408;2023-08-30T08:44:18;1.83;;;1.70;;
15643;SDS011;7921;43.586;1.408;2023-08-30T08:46:44;2.50;;;1.95;;
15643;SDS011;7921;43.586;1.408;2023-08-30T08:49:15;1.83;;;1.73;;
15643;SDS011;7921;43.586;1.408;2023-08-30T08:51:41;2.20;;;1.92;;
15643;SDS011;7921;43.586;1.408;2023-08-30T08:54:08;3.22;;;2.08;;
15643;SDS011;7921;43.586;1.408;2023-08-30T08:56:36;1.77;;;1.67;;
15643;SDS011;7921;43.586;1.408;2023-08-30T08:59:03;2.22;;;2.03;;
15643;SDS011;7921;43.586;1.408;2023-08-30T09:01:29;1.80;;;1.70;;
15643;SDS011;7921;43.586;1.408;2023-08-30T09:03:54;1.98;;;1.70;;
15643;SDS011;7921;43.586;1.408;2023-08-30T09:06:20;2.67;;;2.25;;
15643;SDS011;7921;43.586;1.408;2023-08-30T09:08:46;1.90;;;1.63;;
15643;SDS011;7921;43.586;1.408;2023-08-30T09:11:12;1.88;;;1.70;;
15643;SDS011;7921;43.586;1.408;2023-08-30T09:13:37;2.40;;;2.20;;
15643;SDS011;7921;43.586;1.408;2023-08-30T09:16:10;2.42;;;1.73;;
15643;SDS011;7921;43.586;1.408;2023-08-30T09:18:36;2.22;;;1.90;;
15643;SDS011;7921;43.586;1.408;2023-08-30T09:21:11;2.88;;;1.90;;
15643;SDS011;7921;43.586;1.408;2023-08-30T09:23:36;4.55;;;2.35;;
15643;SDS011;7921;43.586;1.408;2023-08-30T09:26:02;2.08;;;1.95;;
15643;SDS011;7921;43.586;1.408;2023-08-30T09:28:28;2.75;;;2.13;;
15643;SDS011;7921;43.586;1.408;2023-08-30T09:30:56;2.35;;;1.90;;
15643;SDS011;7921;43.586;1.408;2023-08-30T09:33:23;2.42;;;2.22;;
15643;SDS011;7921;43.586;1.408;2023-08-30T09:35:55;3.40;;;2.00;;
15643;SDS011;7921;43.586;1.408;2023-08-30T09:38:21;4.10;;;2.13;;
15643;SDS011;7921;43.586;1.408;2023-08-30T09:40:46;2.58;;;1.80;;
15643;SDS011;7921;43.586;1.408;2023-08-30T09:43:12;2.20;;;2.00;;
15643;SDS011;7921;43.586;1.408;2023-08-30T09:45:39;1.80;;;1.70;;
15643;SDS011;7921;43.586;1.408;2023-08-30T09:48:05;2.25;;;2.00;;
15643;SDS011;7921;43.586;1.408;2023-08-30T09:50:34;1.90;;;1.70;;
15643;SDS011;7921;43.586;1.408;2023-08-30T09:53:01;2.58;;;2.10;;
15643;SDS011;7921;43.586;1.408;2023-08-30T09:55:33;2.22;;;1.90;;
15643;SDS011;7921;43.586;1.408;2023-08-30T09:57:59;2.72;;;1.80;;
15643;SDS011;7921;43.586;1.408;2023-08-30T10:00:27;3.67;;;1.98;;
15643;SDS011;7921;43.586;1.408;2023-08-30T10:02:53;2.55;;;2.00;;
15643;SDS011;7921;43.586;1.408;2023-08-30T10:05:18;2.28;;;2.00;;
15643;SDS011;7921;43.586;1.408;2023-08-30T10:07:44;3.17;;;1.70;;
15643;SDS011;7921;43.586;1.408;2023-08-30T10:10:09;1.95;;;1.70;;
15643;SDS011;7921;43.586;1.408;2023-08-30T10:12:35;1.88;;;1.60;;
15643;SDS011;7921;43.586;1.408;2023-08-30T10:15:02;5.20;;;3.08;;
15643;SDS011;7921;43.586;1.408;2023-08-30T10:17:28;3.25;;;2.95;;
15643;SDS011;7921;43.586;1.408;2023-08-30T10:19:56;2.45;;;2.25;;
15643;SDS011;7921;43.586;1.408;2023-08-30T10:22:22;4.07;;;2.85;;
15643;SDS011;7921;43.586;1.408;2023-08-30T10:24:49;3.17;;;2.05;;
15643;SDS011;7921;43.586;1.408;2023-08-30T10:27:18;2.45;;;2.25;;
15643;SDS011;7921;43.586;1.408;2023-08-30T10:29:45;3.05;;;2.10;;
15643;SDS011;7921;43.586;1.408;2023-08-30T10:32:10;4.53;;;2.28;;
15643;SDS011;7921;43.586;1.408;2023-08-30T10:34:36;1.85;;;1.60;;
15643;SDS011;7921;43.586;1.408;2023-08-30T10:37:03;1.90;;;1.80;;
15643;SDS011;7921;43.586;1.408;2023-08-30T10:39:41;1.70;;;1.60;;
15643;SDS011;7921;43.586;1.408;2023-08-30T10:42:13;1.50;;;1.40;;
15643;SDS011;7921;43.586;1.408;2023-08-30T10:44:50;2.45;;;1.90;;
15643;SDS011;7921;43.586;1.408;2023-08-30T10:47:23;2.20;;;2.00;;
15643;SDS011;7921;43.586;1.408;2023-08-30T10:49:53;2.20;;;1.90;;
15643;SDS011;7921;43.586;1.408;2023-08-30T10:52:19;3.47;;;1.90;;
15643;SDS011;7921;43.586;1.408;2023-08-30T10:54:44;2.67;;;1.90;;
15643;SDS011;7921;43.586;1.408;2023-08-30T10:57:13;2.20;;;2.00;;
15643;SDS011;7921;43.586;1.408;2023-08-30T10:59:39;2.30;;;2.10;;
15643;SDS011;7921;43.586;1.408;2023-08-30T11:02:08;3.15;;;2.38;;
15643;SDS011;7921;43.586;1.408;2023-08-30T11:04:34;3.30;;;2.65;;
15643;SDS011;7921;43.586;1.408;2023-08-30T11:07:05;2.35;;;2.15;;
15643;SDS011;7921;43.586;1.408;2023-08-30T11:09:30;2.13;;;1.92;;
15643;SDS011;7921;43.586;1.408;2023-08-30T11:11:56;2.25;;;2.05;;
15643;SDS011;7921;43.586;1.408;2023-08-30T11:14:22;2.65;;;2.00;;
15643;SDS011;7921;43.586;1.408;2023-08-30T11:16:47;2.28;;;1.92;;
15643;SDS011;7921;43.586;1.408;2023-08-30T11:19:14;2.30;;;2.10;;
15643;SDS011;7921;43.586;1.408;2023-08-30T11:21:40;2.70;;;1.92;;
15643;SDS011;7921;43.586;1.408;2023-08-30T11:24:07;2.28;;;2.08;;
15643;SDS011;7921;43.586;1.408;2023-08-30T11:26:33;2.70;;;2.45;;
15643;SDS011;7921;43.586;1.408;2023-08-30T11:29:05;3.28;;;2.97;;
15643;SDS011;7921;43.586;1.408;2023-08-30T11:31:31;3.08;;;2.78;;
15643;SDS011;7921;43.586;1.408;2023-08-30T11:33:57;2.30;;;2.10;;
15643;SDS011;7921;43.586;1.408;2023-08-30T11:36:25;2.20;;;2.00;;
15643;SDS011;7921;43.586;1.408;2023-08-30T11:38:55;1.83;;;1.73;;
15643;SDS011;7921;43.586;1.408;2023-08-30T11:41:21;2.25;;;2.05;;
15643;SDS011;7921;43.586;1.408;2023-08-30T11:43:50;2.33;;;2.13;;
15643;SDS011;7921;43.586;1.408;2023-08-30T11:46:16;1.58;;;1.48;;
15643;SDS011;7921;43.586;1.408;2023-08-30T11:48:42;4.00;;;1.95;;
15643;SDS011;7921;43.586;1.408;2023-08-30T11:51:09;1.70;;;1.60;;
15643;SDS011;7921;43.586;1.408;2023-08-30T11:53:34;2.40;;;1.83;;
15643;SDS011;7921;43.586;1.408;2023-08-30T11:56:00;1.40;;;1.30;;
15643;SDS011;7921;43.586;1.408;2023-08-30T11:58:26;2.40;;;1.58;;
15643;SDS011;7921;43.586;1.408;2023-08-30T12:00:52;1.67;;;1.58;;
15643;SDS011;7921;43.586;1.408;2023-08-30T12:03:19;1.73;;;1.63;;
15643;SDS011;7921;43.586;1.408;2023-08-30T12:05:48;2.00;;;1.85;;
15643;SDS011;7921;43.586;1.408;2023-08-30T12:08:18;1.70;;;1.60;;
15643;SDS011;7921;43.586;1.408;2023-08-30T12:10:54;1.80;;;1.70;;
15643;SDS011;7921;43.586;1.408;2023-08-30T12:13:27;2.05;;;1.67;;
15643;SDS011;7921;43.586;1.408;2023-08-30T12:15:54;2.05;;;1.75;;
15643;SDS011;7921;43.586;1.408;2023-08-30T12:18:26;1.52;;;1.42;;
15643;SDS011;7921;43.586;1.408;2023-08-30T12:21:12;1.60;;;1.50;;
15643;SDS011;7921;43.586;1.408;2023-08-30T12:23:38;1.85;;;1.70;;
15643;SDS011;7921;43.586;1.408;2023-08-30T12:28:31;1.75;;;1.65;;
15643;SDS011;7921;43.586;1.408;2023-08-30T12:30:58;1.60;;;1.50;;
15643;SDS011;7921;43.586;1.408;2023-08-30T12:33:23;1.92;;;1.50;;
15643;SDS011;7921;43.586;1.408;2023-08-30T12:35:56;2.33;;;1.52;;
15643;SDS011;7921;43.586;1.408;2023-08-30T12:38:22;1.45;;;1.35;;
15643;SDS011;7921;43.586;1.408;2023-08-30T12:40:48;1.55;;;1.35;;
15643;SDS011;7921;43.586;1.408;2023-08-30T12:43:15;1.50;;;1.38;;
15643;SDS011;7921;43.586;1.408;2023-08-30T12:45:41;1.35;;;1.25;;
15643;SDS011;7921;43.586;1.408;2023-08-30T12:48:07;1.73;;;1.52;;
15643;SDS011;7921;43.586;1.408;2023-08-30T12:50:34;1.10;;;1.10;;
15643;SDS011;7921;43.586;1.408;2023-08-30T12:53:00;1.20;;;1.10;;
15643;SDS011;7921;43.586;1.408;2023-08-30T12:55:26;1.75;;;1.40;;
15643;SDS011;7921;43.586;1.408;2023-08-30T12:57:52;1.10;;;1.00;;
15643;SDS011;7921;43.586;1.408;2023-08-30T13:00:18;1.08;;;1.08;;
15643;SDS011;7921;43.586;1.408;2023-08-30T13:02:43;1.00;;;1.00;;
15643;SDS011;7921;43.586;1.408;2023-08-30T13:05:09;2.10;;;1.17;;
15643;SDS011;7921;43.586;1.408;2023-08-30T13:07:34;0.98;;;0.98;;
15643;SDS011;7921;43.586;1.408;2023-08-30T13:09:59;1.60;;;1.38;;
15643;SDS011;7921;43.586;1.408;2023-08-30T13:12:25;2.55;;;1.20;;
15643;SDS011;7921;43.586;1.408;2023-08-30T13:14:50;1.40;;;1.30;;
15643;SDS011;7921;43.586;1.408;2023-08-30T13:17:16;1.65;;;0.95;;
15643;SDS011;7921;43.586;1.408;2023-08-30T13:19:42;0.95;;;0.93;;
15643;SDS011;7921;43.586;1.408;2023-08-30T13:22:08;1.15;;;1.05;;
15643;SDS011;7921;43.586;1.408;2023-08-30T13:24:35;1.17;;;1.10;;
15643;SDS011;7921;43.586;1.408;2023-08-30T13:27:00;0.95;;;0.88;;
15643;SDS011;7921;43.586;1.408;2023-08-30T13:29:25;0.80;;;0.80;;
15643;SDS011;7921;43.586;1.408;2023-08-30T13:31:51;1.20;;;1.10;;
15643;SDS011;7921;43.586;1.408;2023-08-30T13:34:16;1.25;;;1.15;;
15643;SDS011;7921;43.586;1.408;2023-08-30T13:36:42;1.05;;;1.00;;
15643;SDS011;7921;43.586;1.408;2023-08-30T13:39:07;0.85;;;0.85;;
15643;SDS011;7921;43.586;1.408;2023-08-30T13:41:32;1.00;;;1.00;;
15643;SDS011;7921;43.586;1.408;2023-08-30T13:43:59;0.90;;;0.90;;
15643;SDS011;7921;43.586;1.408;2023-08-30T13:46:24;1.20;;;1.10;;
15643;SDS011;7921;43.586;1.408;2023-08-30T13:48:50;0.93;;;0.82;;
15643;SDS011;7921;43.586;1.408;2023-08-30T13:51:20;2.65;;;1.00;;
15643;SDS011;7921;43.586;1.408;2023-08-30T13:53:49;0.80;;;0.80;;
15643;SDS011;7921;43.586;1.408;2023-08-30T13:56:15;1.00;;;0.90;;
15643;SDS011;7921;43.586;1.408;2023-08-30T13:58:41;2.85;;;2.65;;
15643;SDS011;7921;43.586;1.408;2023-08-30T14:01:06;1.00;;;0.98;;
15643;SDS011;7921;43.586;1.408;2023-08-30T14:03:32;0.80;;;0.80;;
15643;SDS011;7921;43.586;1.408;2023-08-30T14:05:57;0.90;;;0.90;;
15643;SDS011;7921;43.586;1.408;2023-08-30T14:08:23;0.80;;;0.80;;
15643;SDS011;7921;43.586;1.408;2023-08-30T14:10:48;1.08;;;0.70;;
15643;SDS011;7921;43.586;1.408;2023-08-30T14:13:14;0.90;;;0.82;;
15643;SDS011;7921;43.586;1.408;2023-08-30T14:15:40;0.77;;;0.77;;
15643;SDS011;7921;43.586;1.408;2023-08-30T14:18:06;1.10;;;1.00;;
15643;SDS011;7921;43.586;1.408;2023-08-30T14:20:32;0.70;;;0.70;;
15643;SDS011;7921;43.586;1.408;2023-08-30T14:22:57;0.90;;;0.90;;
15643;SDS011;7921;43.586;1.408;2023-08-30T14:25:22;0.88;;;0.88;;
15643;SDS011;7921;43.586;1.408;2023-08-30T14:27:48;0.90;;;0.90;;
15643;SDS011;7921;43.586;1.408;2023-08-30T14:30:13;1.02;;;0.85;;
15643;SDS011;7921;43.586;1.408;2023-08-30T14:32:39;0.70;;;0.70;;
15643;SDS011;7921;43.586;1.408;2023-08-30T14:35:05;0.70;;;0.70;;
15643;SDS011;7921;43.586;1.408;2023-08-30T14:37:31;1.38;;;0.90;;
15643;SDS011;7921;43.586;1.408;2023-08-30T14:39:56;0.95;;;0.82;;
15643;SDS011;7921;43.586;1.408;2023-08-30T14:42:21;0.85;;;0.85;;
15643;SDS011;7921;43.586;1.408;2023-08-30T14:44:50;0.73;;;0.73;;
15643;SDS011;7921;43.586;1.408;2023-08-30T14:47:16;1.50;;;1.00;;
15643;SDS011;7921;43.586;1.408;2023-08-30T14:49:43;0.80;;;0.80;;
15643;SDS011;7921;43.586;1.408;2023-08-30T14:52:09;0.73;;;0.73;;
15643;SDS011;7921;43.586;1.408;2023-08-30T14:54:35;0.93;;;0.93;;
15643;SDS011;7921;43.586;1.408;2023-08-30T14:57:00;0.68;;;0.68;;
15643;SDS011;7921;43.586;1.408;2023-08-30T14:59:26;0.90;;;0.88;;
15643;SDS011;7921;43.586;1.408;2023-08-30T15:01:51;0.70;;;0.70;;
15643;SDS011;7921;43.586;1.408;2023-08-30T15:04:17;0.82;;;0.82;;
15643;SDS011;7921;43.586;1.408;2023-08-30T15:06:42;0.80;;;0.80;;